Terminal Aerodrome Forecast
Issued by NWS

Home | Current Version | Previous Version | Text Only | Print | Product List | Glossary On
Versions: 1 2 3 4 5 6 7 8 9 10 11 12
681
FTPA31 PHFO 212341
TAFHJH
TAF
PHJH 212341Z 2200/2224 03025G40KT P6SM VCSH SCT025 BKN040
     FM220600 03020G30KT P6SM VCSH SCT025 BKN050
      AMD NOT SKED AFT 220400=

USA.gov is the U.S. government's official web portal to all federal, state and local government web resources and services.